sensor_id;sensor_type;location;lat;lon;timestamp;P1;durP1;ratioP1;P2;durP2;ratioP2
63943;SDS011;50121;51.218;7.664;2023-12-14T00:02:13;16.40;;;10.45;;
63943;SDS011;50121;51.218;7.664;2023-12-14T00:04:41;19.80;;;10.90;;
63943;SDS011;50121;51.218;7.664;2023-12-14T00:07:08;17.02;;;12.07;;
63943;SDS011;50121;51.218;7.664;2023-12-14T00:09:37;15.35;;;10.77;;
63943;SDS011;50121;51.218;7.664;2023-12-14T00:12:05;15.85;;;11.13;;
63943;SDS011;50121;51.218;7.664;2023-12-14T00:14:32;17.27;;;11.95;;
63943;SDS011;50121;51.218;7.664;2023-12-14T00:17:00;18.02;;;12.07;;
63943;SDS011;50121;51.218;7.664;2023-12-14T00:19:27;20.00;;;12.50;;
63943;SDS011;50121;51.218;7.664;2023-12-14T00:21:55;21.40;;;11.98;;
63943;SDS011;50121;51.218;7.664;2023-12-14T00:24:22;21.45;;;11.95;;
63943;SDS011;50121;51.218;7.664;2023-12-14T00:26:51;20.13;;;11.63;;
63943;SDS011;50121;51.218;7.664;2023-12-14T00:29:18;21.10;;;12.20;;
63943;SDS011;50121;51.218;7.664;2023-12-14T00:31:46;23.02;;;12.68;;
63943;SDS011;50121;51.218;7.664;2023-12-14T00:34:14;20.40;;;11.98;;
63943;SDS011;50121;51.218;7.664;2023-12-14T00:36:41;27.23;;;12.80;;
63943;SDS011;50121;51.218;7.664;2023-12-14T00:39:09;24.35;;;12.18;;
63943;SDS011;50121;51.218;7.664;2023-12-14T00:41:37;21.73;;;12.15;;
63943;SDS011;50121;51.218;7.664;2023-12-14T00:44:04;26.05;;;12.32;;
63943;SDS011;50121;51.218;7.664;2023-12-14T00:46:32;24.00;;;12.93;;
63943;SDS011;50121;51.218;7.664;2023-12-14T00:48:59;25.50;;;13.05;;
63943;SDS011;50121;51.218;7.664;2023-12-14T00:51:28;24.60;;;12.32;;
63943;SDS011;50121;51.218;7.664;2023-12-14T00:53:56;26.02;;;12.65;;
63943;SDS011;50121;51.218;7.664;2023-12-14T00:56:24;26.48;;;12.95;;
63943;SDS011;50121;51.218;7.664;2023-12-14T00:58:51;27.10;;;13.18;;
63943;SDS011;50121;51.218;7.664;2023-12-14T01:01:19;28.02;;;13.45;;
63943;SDS011;50121;51.218;7.664;2023-12-14T01:03:46;26.90;;;13.73;;
63943;SDS011;50121;51.218;7.664;2023-12-14T01:06:14;28.00;;;14.43;;
63943;SDS011;50121;51.218;7.664;2023-12-14T01:08:41;31.25;;;14.30;;
63943;SDS011;50121;51.218;7.664;2023-12-14T01:11:09;29.50;;;14.65;;
63943;SDS011;50121;51.218;7.664;2023-12-14T01:13:37;26.75;;;14.25;;
63943;SDS011;50121;51.218;7.664;2023-12-14T01:16:04;30.88;;;14.43;;
63943;SDS011;50121;51.218;7.664;2023-12-14T01:18:32;30.08;;;15.45;;
63943;SDS011;50121;51.218;7.664;2023-12-14T01:21:00;30.83;;;15.73;;
63943;SDS011;50121;51.218;7.664;2023-12-14T01:23:27;32.78;;;14.23;;
63943;SDS011;50121;51.218;7.664;2023-12-14T01:25:55;30.67;;;14.60;;
63943;SDS011;50121;51.218;7.664;2023-12-14T01:28:22;27.40;;;13.80;;
63943;SDS011;50121;51.218;7.664;2023-12-14T01:30:57;37.00;;;13.02;;
63943;SDS011;50121;51.218;7.664;2023-12-14T01:33:25;25.05;;;11.13;;
63943;SDS011;50121;51.218;7.664;2023-12-14T01:35:53;48.45;;;12.48;;
63943;SDS011;50121;51.218;7.664;2023-12-14T01:38:20;61.65;;;12.32;;
63943;SDS011;50121;51.218;7.664;2023-12-14T01:40:48;34.03;;;11.15;;
63943;SDS011;50121;51.218;7.664;2023-12-14T01:43:15;79.65;;;12.55;;
63943;SDS011;50121;51.218;7.664;2023-12-14T01:45:43;186.40;;;14.85;;
63943;SDS011;50121;51.218;7.664;2023-12-14T01:48:10;172.50;;;12.32;;
63943;SDS011;50121;51.218;7.664;2023-12-14T01:50:38;153.80;;;11.88;;
63943;SDS011;50121;51.218;7.664;2023-12-14T01:53:05;55.20;;;8.73;;
63943;SDS011;50121;51.218;7.664;2023-12-14T01:55:33;65.22;;;9.38;;
63943;SDS011;50121;51.218;7.664;2023-12-14T01:58:01;201.30;;;11.73;;
63943;SDS011;50121;51.218;7.664;2023-12-14T02:00:35;18.83;;;7.05;;
63943;SDS011;50121;51.218;7.664;2023-12-14T02:03:03;11.93;;;5.53;;
63943;SDS011;50121;51.218;7.664;2023-12-14T02:05:31;15.35;;;4.53;;
63943;SDS011;50121;51.218;7.664;2023-12-14T02:07:59;22.88;;;4.43;;
63943;SDS011;50121;51.218;7.664;2023-12-14T02:10:26;14.85;;;4.40;;
63943;SDS011;50121;51.218;7.664;2023-12-14T02:12:54;10.68;;;3.92;;
63943;SDS011;50121;51.218;7.664;2023-12-14T02:15:22;3.95;;;3.35;;
63943;SDS011;50121;51.218;7.664;2023-12-14T02:17:49;31.75;;;4.10;;
63943;SDS011;50121;51.218;7.664;2023-12-14T02:20:17;106.15;;;6.00;;
63943;SDS011;50121;51.218;7.664;2023-12-14T02:22:48;57.65;;;5.32;;
63943;SDS011;50121;51.218;7.664;2023-12-14T02:25:17;114.45;;;6.78;;
63943;SDS011;50121;51.218;7.664;2023-12-14T02:27:44;151.07;;;7.82;;
63943;SDS011;50121;51.218;7.664;2023-12-14T02:30:12;143.55;;;7.82;;
63943;SDS011;50121;51.218;7.664;2023-12-14T02:32:40;137.23;;;7.30;;
63943;SDS011;50121;51.218;7.664;2023-12-14T02:35:08;210.43;;;9.00;;
63943;SDS011;50121;51.218;7.664;2023-12-14T02:37:36;182.13;;;8.55;;
63943;SDS011;50121;51.218;7.664;2023-12-14T02:40:04;136.15;;;7.72;;
63943;SDS011;50121;51.218;7.664;2023-12-14T02:42:32;162.07;;;8.43;;
63943;SDS011;50121;51.218;7.664;2023-12-14T02:45:00;241.00;;;9.30;;
63943;SDS011;50121;51.218;7.664;2023-12-14T02:47:29;260.52;;;10.52;;
63943;SDS011;50121;51.218;7.664;2023-12-14T02:49:57;259.10;;;10.70;;
63943;SDS011;50121;51.218;7.664;2023-12-14T02:52:25;266.02;;;10.18;;
63943;SDS011;50121;51.218;7.664;2023-12-14T02:54:52;229.25;;;10.02;;
63943;SDS011;50121;51.218;7.664;2023-12-14T02:57:20;223.60;;;10.07;;
63943;SDS011;50121;51.218;7.664;2023-12-14T02:59:47;179.82;;;8.43;;
63943;SDS011;50121;51.218;7.664;2023-12-14T03:02:15;207.35;;;9.68;;
63943;SDS011;50121;51.218;7.664;2023-12-14T03:04:42;125.68;;;7.45;;
63943;SDS011;50121;51.218;7.664;2023-12-14T03:07:10;85.43;;;6.22;;
63943;SDS011;50121;51.218;7.664;2023-12-14T03:09:41;84.82;;;5.65;;
63943;SDS011;50121;51.218;7.664;2023-12-14T03:12:10;91.88;;;5.97;;
63943;SDS011;50121;51.218;7.664;2023-12-14T03:14:38;62.80;;;5.82;;
63943;SDS011;50121;51.218;7.664;2023-12-14T03:17:07;4.40;;;4.00;;
63943;SDS011;50121;51.218;7.664;2023-12-14T03:19:39;4.55;;;4.15;;
63943;SDS011;50121;51.218;7.664;2023-12-14T03:22:10;4.18;;;3.85;;
63943;SDS011;50121;51.218;7.664;2023-12-14T03:24:37;4.18;;;3.88;;
63943;SDS011;50121;51.218;7.664;2023-12-14T03:27:05;59.13;;;5.78;;
63943;SDS011;50121;51.218;7.664;2023-12-14T03:29:32;23.35;;;4.68;;
63943;SDS011;50121;51.218;7.664;2023-12-14T03:32:01;7.82;;;4.53;;
63943;SDS011;50121;51.218;7.664;2023-12-14T03:34:28;29.85;;;4.90;;
63943;SDS011;50121;51.218;7.664;2023-12-14T03:36:56;57.55;;;5.65;;
63943;SDS011;50121;51.218;7.664;2023-12-14T03:39:23;8.50;;;4.70;;
63943;SDS011;50121;51.218;7.664;2023-12-14T03:41:51;5.38;;;4.10;;
63943;SDS011;50121;51.218;7.664;2023-12-14T03:44:18;4.20;;;3.90;;
63943;SDS011;50121;51.218;7.664;2023-12-14T03:46:46;4.85;;;4.45;;
63943;SDS011;50121;51.218;7.664;2023-12-14T03:49:13;5.38;;;4.40;;
63943;SDS011;50121;51.218;7.664;2023-12-14T03:51:41;4.88;;;4.47;;
63943;SDS011;50121;51.218;7.664;2023-12-14T03:54:08;5.05;;;4.65;;
63943;SDS011;50121;51.218;7.664;2023-12-14T03:56:36;4.75;;;4.35;;
63943;SDS011;50121;51.218;7.664;2023-12-14T03:59:04;5.07;;;4.75;;
63943;SDS011;50121;51.218;7.664;2023-12-14T04:01:31;4.90;;;4.53;;
63943;SDS011;50121;51.218;7.664;2023-12-14T04:04:00;4.90;;;4.53;;
63943;SDS011;50121;51.218;7.664;2023-12-14T04:06:27;4.80;;;4.50;;
63943;SDS011;50121;51.218;7.664;2023-12-14T04:08:55;5.03;;;4.72;;
63943;SDS011;50121;51.218;7.664;2023-12-14T04:11:23;5.18;;;4.70;;
63943;SDS011;50121;51.218;7.664;2023-12-14T04:13:50;4.57;;;4.28;;
63943;SDS011;50121;51.218;7.664;2023-12-14T04:16:20;5.20;;;4.80;;
63943;SDS011;50121;51.218;7.664;2023-12-14T04:18:49;4.95;;;4.55;;
63943;SDS011;50121;51.218;7.664;2023-12-14T04:21:17;4.95;;;4.57;;
63943;SDS011;50121;51.218;7.664;2023-12-14T04:23:45;4.47;;;4.15;;
63943;SDS011;50121;51.218;7.664;2023-12-14T04:26:12;4.43;;;4.13;;
63943;SDS011;50121;51.218;7.664;2023-12-14T04:28:40;4.60;;;4.20;;
63943;SDS011;50121;51.218;7.664;2023-12-14T04:31:13;4.70;;;4.40;;
63943;SDS011;50121;51.218;7.664;2023-12-14T04:33:41;5.25;;;4.80;;
63943;SDS011;50121;51.218;7.664;2023-12-14T04:36:08;4.82;;;4.43;;
63943;SDS011;50121;51.218;7.664;2023-12-14T04:38:36;5.07;;;4.68;;
63943;SDS011;50121;51.218;7.664;2023-12-14T04:41:04;6.03;;;4.50;;
63943;SDS011;50121;51.218;7.664;2023-12-14T04:43:31;4.78;;;4.10;;
63943;SDS011;50121;51.218;7.664;2023-12-14T04:45:59;4.80;;;4.30;;
63943;SDS011;50121;51.218;7.664;2023-12-14T04:48:26;58.13;;;5.90;;
63943;SDS011;50121;51.218;7.664;2023-12-14T04:50:54;25.67;;;4.47;;
63943;SDS011;50121;51.218;7.664;2023-12-14T04:53:22;43.58;;;5.57;;
63943;SDS011;50121;51.218;7.664;2023-12-14T04:55:50;5.20;;;4.70;;
63943;SDS011;50121;51.218;7.664;2023-12-14T04:58:17;40.00;;;5.63;;
63943;SDS011;50121;51.218;7.664;2023-12-14T05:00:45;106.50;;;7.47;;
63943;SDS011;50121;51.218;7.664;2023-12-14T05:03:13;60.20;;;6.13;;
63943;SDS011;50121;51.218;7.664;2023-12-14T05:05:40;188.82;;;8.70;;
63943;SDS011;50121;51.218;7.664;2023-12-14T05:08:08;155.13;;;8.38;;
63943;SDS011;50121;51.218;7.664;2023-12-14T05:10:36;167.80;;;8.05;;
63943;SDS011;50121;51.218;7.664;2023-12-14T05:13:04;171.85;;;7.90;;
63943;SDS011;50121;51.218;7.664;2023-12-14T05:15:31;136.95;;;6.47;;
63943;SDS011;50121;51.218;7.664;2023-12-14T05:17:59;186.05;;;8.50;;
63943;SDS011;50121;51.218;7.664;2023-12-14T05:20:26;44.72;;;5.40;;
63943;SDS011;50121;51.218;7.664;2023-12-14T05:22:54;96.15;;;6.35;;
63943;SDS011;50121;51.218;7.664;2023-12-14T05:25:22;48.13;;;5.50;;
63943;SDS011;50121;51.218;7.664;2023-12-14T05:27:50;17.20;;;5.15;;
63943;SDS011;50121;51.218;7.664;2023-12-14T05:30:17;9.88;;;5.03;;
63943;SDS011;50121;51.218;7.664;2023-12-14T05:32:45;6.40;;;5.03;;
63943;SDS011;50121;51.218;7.664;2023-12-14T05:35:13;17.90;;;5.93;;
63943;SDS011;50121;51.218;7.664;2023-12-14T05:37:41;13.10;;;5.20;;
63943;SDS011;50121;51.218;7.664;2023-12-14T05:40:09;45.05;;;6.00;;
63943;SDS011;50121;51.218;7.664;2023-12-14T05:42:37;14.48;;;5.18;;
63943;SDS011;50121;51.218;7.664;2023-12-14T05:45:05;32.80;;;5.53;;
63943;SDS011;50121;51.218;7.664;2023-12-14T05:47:34;62.13;;;7.00;;
63943;SDS011;50121;51.218;7.664;2023-12-14T05:50:03;55.30;;;7.05;;
63943;SDS011;50121;51.218;7.664;2023-12-14T05:52:31;7.68;;;6.30;;
63943;SDS011;50121;51.218;7.664;2023-12-14T05:54:59;10.40;;;6.32;;
63943;SDS011;50121;51.218;7.664;2023-12-14T05:57:30;17.70;;;5.97;;
63943;SDS011;50121;51.218;7.664;2023-12-14T05:59:59;11.13;;;6.30;;
63943;SDS011;50121;51.218;7.664;2023-12-14T06:02:27;10.68;;;6.57;;
63943;SDS011;50121;51.218;7.664;2023-12-14T06:04:55;7.90;;;6.10;;
63943;SDS011;50121;51.218;7.664;2023-12-14T06:07:24;10.82;;;6.50;;
63943;SDS011;50121;51.218;7.664;2023-12-14T06:09:52;7.38;;;6.22;;
63943;SDS011;50121;51.218;7.664;2023-12-14T06:12:20;11.25;;;6.80;;
63943;SDS011;50121;51.218;7.664;2023-12-14T06:14:47;9.88;;;6.30;;
63943;SDS011;50121;51.218;7.664;2023-12-14T06:17:16;8.10;;;6.43;;
63943;SDS011;50121;51.218;7.664;2023-12-14T06:19:44;13.73;;;6.28;;
63943;SDS011;50121;51.218;7.664;2023-12-14T06:22:12;13.73;;;7.80;;
63943;SDS011;50121;51.218;7.664;2023-12-14T06:24:40;10.43;;;7.45;;
63943;SDS011;50121;51.218;7.664;2023-12-14T06:27:07;18.58;;;7.55;;
63943;SDS011;50121;51.218;7.664;2023-12-14T06:29:35;13.05;;;7.40;;
63943;SDS011;50121;51.218;7.664;2023-12-14T06:32:03;11.80;;;5.85;;
63943;SDS011;50121;51.218;7.664;2023-12-14T06:34:31;25.63;;;6.75;;
63943;SDS011;50121;51.218;7.664;2023-12-14T06:36:59;6.97;;;5.68;;
63943;SDS011;50121;51.218;7.664;2023-12-14T06:39:28;11.68;;;6.32;;
63943;SDS011;50121;51.218;7.664;2023-12-14T06:41:56;12.68;;;6.53;;
63943;SDS011;50121;51.218;7.664;2023-12-14T06:44:23;30.55;;;6.28;;
63943;SDS011;50121;51.218;7.664;2023-12-14T06:46:53;23.48;;;6.45;;
63943;SDS011;50121;51.218;7.664;2023-12-14T06:49:21;10.15;;;6.38;;
63943;SDS011;50121;51.218;7.664;2023-12-14T06:51:49;16.05;;;6.43;;
63943;SDS011;50121;51.218;7.664;2023-12-14T06:54:17;73.07;;;7.18;;
63943;SDS011;50121;51.218;7.664;2023-12-14T06:56:45;91.75;;;6.93;;
63943;SDS011;50121;51.218;7.664;2023-12-14T06:59:13;7.43;;;5.10;;
63943;SDS011;50121;51.218;7.664;2023-12-14T07:01:42;6.43;;;5.82;;
63943;SDS011;50121;51.218;7.664;2023-12-14T07:04:10;7.20;;;5.88;;
63943;SDS011;50121;51.218;7.664;2023-12-14T07:06:39;13.05;;;6.15;;
63943;SDS011;50121;51.218;7.664;2023-12-14T07:09:07;6.20;;;5.57;;
63943;SDS011;50121;51.218;7.664;2023-12-14T07:11:34;21.38;;;6.35;;
63943;SDS011;50121;51.218;7.664;2023-12-14T07:14:02;13.98;;;6.32;;
63943;SDS011;50121;51.218;7.664;2023-12-14T07:16:30;22.02;;;5.90;;
63943;SDS011;50121;51.218;7.664;2023-12-14T07:18:57;7.20;;;6.35;;
63943;SDS011;50121;51.218;7.664;2023-12-14T07:21:25;17.48;;;5.93;;
63943;SDS011;50121;51.218;7.664;2023-12-14T07:23:53;9.13;;;6.30;;
63943;SDS011;50121;51.218;7.664;2023-12-14T07:26:21;9.95;;;6.03;;
63943;SDS011;50121;51.218;7.664;2023-12-14T07:28:48;6.18;;;5.63;;
63943;SDS011;50121;51.218;7.664;2023-12-14T07:31:16;7.57;;;6.60;;
63943;SDS011;50121;51.218;7.664;2023-12-14T07:33:45;6.78;;;6.10;;
63943;SDS011;50121;51.218;7.664;2023-12-14T07:36:13;10.10;;;6.47;;
63943;SDS011;50121;51.218;7.664;2023-12-14T07:38:40;7.63;;;6.82;;
63943;SDS011;50121;51.218;7.664;2023-12-14T07:41:08;7.35;;;6.63;;
63943;SDS011;50121;51.218;7.664;2023-12-14T07:43:36;14.55;;;7.32;;
63943;SDS011;50121;51.218;7.664;2023-12-14T07:46:04;9.18;;;6.50;;
63943;SDS011;50121;51.218;7.664;2023-12-14T07:48:31;21.65;;;7.13;;
63943;SDS011;50121;51.218;7.664;2023-12-14T07:50:59;15.63;;;6.47;;
63943;SDS011;50121;51.218;7.664;2023-12-14T07:53:27;28.92;;;10.20;;
63943;SDS011;50121;51.218;7.664;2023-12-14T07:55:56;8.68;;;6.80;;
63943;SDS011;50121;51.218;7.664;2023-12-14T07:58:29;42.55;;;6.95;;
63943;SDS011;50121;51.218;7.664;2023-12-14T08:00:57;27.52;;;6.82;;
63943;SDS011;50121;51.218;7.664;2023-12-14T08:03:25;29.30;;;12.95;;
63943;SDS011;50121;51.218;7.664;2023-12-14T08:05:53;80.00;;;9.13;;
63943;SDS011;50121;51.218;7.664;2023-12-14T08:08:21;14.85;;;6.65;;
63943;SDS011;50121;51.218;7.664;2023-12-14T08:10:48;10.82;;;6.38;;
63943;SDS011;50121;51.218;7.664;2023-12-14T08:13:16;7.80;;;6.97;;
63943;SDS011;50121;51.218;7.664;2023-12-14T08:15:45;22.63;;;7.00;;
63943;SDS011;50121;51.218;7.664;2023-12-14T08:18:12;41.53;;;6.63;;
63943;SDS011;50121;51.218;7.664;2023-12-14T08:20:40;26.70;;;6.22;;
63943;SDS011;50121;51.218;7.664;2023-12-14T08:23:07;52.28;;;6.50;;
63943;SDS011;50121;51.218;7.664;2023-12-14T08:25:35;16.83;;;6.22;;
63943;SDS011;50121;51.218;7.664;2023-12-14T08:28:03;33.95;;;13.32;;
63943;SDS011;50121;51.218;7.664;2023-12-14T08:30:31;72.03;;;8.10;;
63943;SDS011;50121;51.218;7.664;2023-12-14T08:32:58;11.88;;;6.00;;
63943;SDS011;50121;51.218;7.664;2023-12-14T08:35:26;30.35;;;6.85;;
63943;SDS011;50121;51.218;7.664;2023-12-14T08:37:53;41.15;;;6.55;;
63943;SDS011;50121;51.218;7.664;2023-12-14T08:40:21;51.15;;;6.60;;
63943;SDS011;50121;51.218;7.664;2023-12-14T08:42:48;96.03;;;7.53;;
63943;SDS011;50121;51.218;7.664;2023-12-14T08:45:16;53.63;;;6.43;;
63943;SDS011;50121;51.218;7.664;2023-12-14T08:47:44;78.78;;;6.68;;
63943;SDS011;50121;51.218;7.664;2023-12-14T08:50:11;89.22;;;6.97;;
63943;SDS011;50121;51.218;7.664;2023-12-14T08:52:39;49.67;;;5.97;;
63943;SDS011;50121;51.218;7.664;2023-12-14T08:55:07;26.50;;;6.40;;
63943;SDS011;50121;51.218;7.664;2023-12-14T08:57:35;42.55;;;6.20;;
63943;SDS011;50121;51.218;7.664;2023-12-14T09:00:03;75.60;;;9.93;;
63943;SDS011;50121;51.218;7.664;2023-12-14T09:02:34;74.30;;;7.40;;
63943;SDS011;50121;51.218;7.664;2023-12-14T09:05:02;14.98;;;6.95;;
63943;SDS011;50121;51.218;7.664;2023-12-14T09:07:31;147.05;;;9.52;;
63943;SDS011;50121;51.218;7.664;2023-12-14T09:09:58;138.38;;;8.88;;
63943;SDS011;50121;51.218;7.664;2023-12-14T09:12:28;71.50;;;8.20;;
63943;SDS011;50121;51.218;7.664;2023-12-14T09:14:55;152.38;;;9.20;;
63943;SDS011;50121;51.218;7.664;2023-12-14T09:17:23;234.05;;;11.30;;
63943;SDS011;50121;51.218;7.664;2023-12-14T09:19:51;201.27;;;10.43;;
63943;SDS011;50121;51.218;7.664;2023-12-14T09:22:19;95.85;;;8.32;;
63943;SDS011;50121;51.218;7.664;2023-12-14T09:24:46;208.35;;;10.77;;
63943;SDS011;50121;51.218;7.664;2023-12-14T09:27:14;195.02;;;11.00;;
63943;SDS011;50121;51.218;7.664;2023-12-14T09:29:41;224.80;;;11.40;;
63943;SDS011;50121;51.218;7.664;2023-12-14T09:32:09;253.57;;;12.85;;
63943;SDS011;50121;51.218;7.664;2023-12-14T09:34:37;234.13;;;13.45;;
63943;SDS011;50121;51.218;7.664;2023-12-14T09:37:04;144.38;;;12.32;;
63943;SDS011;50121;51.218;7.664;2023-12-14T09:39:32;127.22;;;12.02;;
63943;SDS011;50121;51.218;7.664;2023-12-14T09:42:01;196.23;;;12.63;;
63943;SDS011;50121;51.218;7.664;2023-12-14T09:44:31;174.93;;;12.55;;
63943;SDS011;50121;51.218;7.664;2023-12-14T09:46:59;210.80;;;12.85;;
63943;SDS011;50121;51.218;7.664;2023-12-14T09:49:27;197.07;;;12.68;;
63943;SDS011;50121;51.218;7.664;2023-12-14T09:51:56;205.63;;;12.07;;
63943;SDS011;50121;51.218;7.664;2023-12-14T09:54:24;229.48;;;13.20;;
63943;SDS011;50121;51.218;7.664;2023-12-14T09:56:52;163.38;;;16.85;;
63943;SDS011;50121;51.218;7.664;2023-12-14T09:59:20;144.15;;;13.05;;
63943;SDS011;50121;51.218;7.664;2023-12-14T10:01:48;131.65;;;13.15;;
63943;SDS011;50121;51.218;7.664;2023-12-14T10:04:17;207.70;;;14.52;;
63943;SDS011;50121;51.218;7.664;2023-12-14T10:06:46;312.35;;;15.57;;
63943;SDS011;50121;51.218;7.664;2023-12-14T10:09:14;350.55;;;15.57;;
63943;SDS011;50121;51.218;7.664;2023-12-14T10:11:44;250.90;;;15.20;;
63943;SDS011;50121;51.218;7.664;2023-12-14T10:14:19;335.77;;;16.13;;
63943;SDS011;50121;51.218;7.664;2023-12-14T10:16:51;204.23;;;14.20;;
63943;SDS011;50121;51.218;7.664;2023-12-14T10:19:21;255.88;;;14.00;;
63943;SDS011;50121;51.218;7.664;2023-12-14T10:21:49;119.65;;;12.60;;
63943;SDS011;50121;51.218;7.664;2023-12-14T10:24:17;226.13;;;13.20;;
63943;SDS011;50121;51.218;7.664;2023-12-14T10:26:47;146.82;;;11.80;;
63943;SDS011;50121;51.218;7.664;2023-12-14T10:29:15;241.35;;;13.27;;
63943;SDS011;50121;51.218;7.664;2023-12-14T10:31:43;97.90;;;10.43;;
63943;SDS011;50121;51.218;7.664;2023-12-14T10:34:11;46.50;;;8.70;;
63943;SDS011;50121;51.218;7.664;2023-12-14T10:36:42;51.47;;;8.98;;
63943;SDS011;50121;51.218;7.664;2023-12-14T10:39:14;48.90;;;10.27;;
63943;SDS011;50121;51.218;7.664;2023-12-14T10:41:42;59.55;;;9.52;;
63943;SDS011;50121;51.218;7.664;2023-12-14T10:44:11;87.10;;;9.07;;
63943;SDS011;50121;51.218;7.664;2023-12-14T10:46:43;132.68;;;10.55;;
63943;SDS011;50121;51.218;7.664;2023-12-14T10:49:13;39.85;;;9.40;;
63943;SDS011;50121;51.218;7.664;2023-12-14T10:51:41;74.47;;;10.02;;
63943;SDS011;50121;51.218;7.664;2023-12-14T10:54:10;25.17;;;9.02;;
63943;SDS011;50121;51.218;7.664;2023-12-14T10:56:37;25.17;;;9.73;;
63943;SDS011;50121;51.218;7.664;2023-12-14T10:59:05;24.27;;;9.55;;
63943;SDS011;50121;51.218;7.664;2023-12-14T11:01:33;26.17;;;9.40;;
63943;SDS011;50121;51.218;7.664;2023-12-14T11:04:03;33.05;;;9.18;;
63943;SDS011;50121;51.218;7.664;2023-12-14T11:06:34;29.63;;;8.77;;
63943;SDS011;50121;51.218;7.664;2023-12-14T11:09:05;20.15;;;9.20;;
63943;SDS011;50121;51.218;7.664;2023-12-14T11:11:40;30.17;;;9.73;;
63943;SDS011;50121;51.218;7.664;2023-12-14T11:14:11;37.13;;;10.93;;
63943;SDS011;50121;51.218;7.664;2023-12-14T11:16:50;18.60;;;9.75;;
63943;SDS011;50121;51.218;7.664;2023-12-14T11:24:35;25.20;;;10.32;;
63943;SDS011;50121;51.218;7.664;2023-12-14T11:27:06;21.65;;;10.45;;
63943;SDS011;50121;51.218;7.664;2023-12-14T11:29:37;32.20;;;11.25;;
63943;SDS011;50121;51.218;7.664;2023-12-14T11:32:05;20.70;;;10.98;;
63943;SDS011;50121;51.218;7.664;2023-12-14T11:34:38;32.10;;;11.20;;
63943;SDS011;50121;51.218;7.664;2023-12-14T11:37:06;32.28;;;12.20;;
63943;SDS011;50121;51.218;7.664;2023-12-14T11:39:34;23.98;;;11.93;;
63943;SDS011;50121;51.218;7.664;2023-12-14T11:42:04;20.92;;;12.35;;
63943;SDS011;50121;51.218;7.664;2023-12-14T11:44:33;21.63;;;12.93;;
63943;SDS011;50121;51.218;7.664;2023-12-14T11:47:02;22.50;;;12.68;;
63943;SDS011;50121;51.218;7.664;2023-12-14T11:49:30;20.38;;;12.07;;
63943;SDS011;50121;51.218;7.664;2023-12-14T11:52:01;21.08;;;12.63;;
63943;SDS011;50121;51.218;7.664;2023-12-14T11:54:29;21.13;;;13.43;;
63943;SDS011;50121;51.218;7.664;2023-12-14T11:56:57;24.83;;;14.13;;
63943;SDS011;50121;51.218;7.664;2023-12-14T11:59:25;18.90;;;12.38;;
63943;SDS011;50121;51.218;7.664;2023-12-14T12:01:54;18.73;;;11.73;;
63943;SDS011;50121;51.218;7.664;2023-12-14T12:04:22;19.48;;;12.30;;
63943;SDS011;50121;51.218;7.664;2023-12-14T12:06:58;19.67;;;11.73;;
63943;SDS011;50121;51.218;7.664;2023-12-14T12:09:40;20.70;;;12.95;;
63943;SDS011;50121;51.218;7.664;2023-12-14T12:12:09;19.40;;;11.40;;
63943;SDS011;50121;51.218;7.664;2023-12-14T12:14:37;21.25;;;12.05;;
63943;SDS011;50121;51.218;7.664;2023-12-14T12:17:05;24.77;;;14.20;;
63943;SDS011;50121;51.218;7.664;2023-12-14T12:19:34;23.77;;;13.40;;
63943;SDS011;50121;51.218;7.664;2023-12-14T12:22:01;21.88;;;12.52;;
63943;SDS011;50121;51.218;7.664;2023-12-14T12:24:29;19.15;;;12.27;;
63943;SDS011;50121;51.218;7.664;2023-12-14T12:26:58;20.90;;;12.20;;
63943;SDS011;50121;51.218;7.664;2023-12-14T12:29:26;19.25;;;12.13;;
63943;SDS011;50121;51.218;7.664;2023-12-14T12:31:54;18.73;;;11.48;;
63943;SDS011;50121;51.218;7.664;2023-12-14T12:34:22;20.08;;;11.98;;
63943;SDS011;50121;51.218;7.664;2023-12-14T12:36:50;16.83;;;11.07;;
63943;SDS011;50121;51.218;7.664;2023-12-14T12:39:17;18.42;;;11.85;;
63943;SDS011;50121;51.218;7.664;2023-12-14T12:41:45;17.70;;;11.98;;
63943;SDS011;50121;51.218;7.664;2023-12-14T12:44:12;18.85;;;12.00;;
63943;SDS011;50121;51.218;7.664;2023-12-14T12:46:40;15.13;;;9.93;;
63943;SDS011;50121;51.218;7.664;2023-12-14T12:49:08;15.02;;;10.63;;
63943;SDS011;50121;51.218;7.664;2023-12-14T12:51:35;17.35;;;10.32;;
63943;SDS011;50121;51.218;7.664;2023-12-14T12:54:04;13.85;;;10.10;;
63943;SDS011;50121;51.218;7.664;2023-12-14T12:56:32;14.18;;;10.02;;
63943;SDS011;50121;51.218;7.664;2023-12-14T12:59:00;13.20;;;9.18;;
63943;SDS011;50121;51.218;7.664;2023-12-14T13:01:28;17.85;;;12.77;;
63943;SDS011;50121;51.218;7.664;2023-12-14T13:03:55;13.98;;;10.52;;
63943;SDS011;50121;51.218;7.664;2023-12-14T13:06:26;14.68;;;9.80;;
63943;SDS011;50121;51.218;7.664;2023-12-14T13:08:54;12.13;;;9.40;;
63943;SDS011;50121;51.218;7.664;2023-12-14T13:11:22;17.35;;;11.57;;
63943;SDS011;50121;51.218;7.664;2023-12-14T13:13:51;12.38;;;9.05;;
63943;SDS011;50121;51.218;7.664;2023-12-14T13:16:19;28.77;;;17.85;;
63943;SDS011;50121;51.218;7.664;2023-12-14T13:18:47;15.07;;;9.20;;
63943;SDS011;50121;51.218;7.664;2023-12-14T13:21:14;19.67;;;13.10;;
63943;SDS011;50121;51.218;7.664;2023-12-14T13:23:42;13.70;;;10.63;;
63943;SDS011;50121;51.218;7.664;2023-12-14T13:26:10;19.08;;;13.25;;
63943;SDS011;50121;51.218;7.664;2023-12-14T13:28:38;14.43;;;10.82;;
63943;SDS011;50121;51.218;7.664;2023-12-14T13:31:05;15.48;;;10.40;;
63943;SDS011;50121;51.218;7.664;2023-12-14T13:33:33;19.25;;;13.05;;
63943;SDS011;50121;51.218;7.664;2023-12-14T13:36:01;24.30;;;12.60;;
63943;SDS011;50121;51.218;7.664;2023-12-14T13:38:28;17.80;;;11.65;;
63943;SDS011;50121;51.218;7.664;2023-12-14T13:40:58;15.45;;;10.48;;
63943;SDS011;50121;51.218;7.664;2023-12-14T13:43:26;15.70;;;10.75;;
63943;SDS011;50121;51.218;7.664;2023-12-14T13:45:54;13.50;;;9.60;;
63943;SDS011;50121;51.218;7.664;2023-12-14T13:48:27;16.17;;;10.32;;
63943;SDS011;50121;51.218;7.664;2023-12-14T13:50:55;15.05;;;10.23;;
63943;SDS011;50121;51.218;7.664;2023-12-14T13:53:23;14.68;;;10.18;;
63943;SDS011;50121;51.218;7.664;2023-12-14T13:55:51;18.98;;;13.15;;
63943;SDS011;50121;51.218;7.664;2023-12-14T13:58:19;15.60;;;10.80;;
63943;SDS011;50121;51.218;7.664;2023-12-14T14:00:47;14.52;;;11.10;;
63943;SDS011;50121;51.218;7.664;2023-12-14T14:03:15;15.00;;;11.20;;
63943;SDS011;50121;51.218;7.664;2023-12-14T14:05:42;19.77;;;11.98;;
63943;SDS011;50121;51.218;7.664;2023-12-14T14:08:11;14.95;;;11.20;;
63943;SDS011;50121;51.218;7.664;2023-12-14T14:10:42;14.63;;;11.20;;
63943;SDS011;50121;51.218;7.664;2023-12-14T14:13:10;13.65;;;10.13;;
63943;SDS011;50121;51.218;7.664;2023-12-14T14:15:37;15.73;;;10.85;;
63943;SDS011;50121;51.218;7.664;2023-12-14T14:18:05;13.13;;;10.30;;
63943;SDS011;50121;51.218;7.664;2023-12-14T14:20:33;13.60;;;10.35;;
63943;SDS011;50121;51.218;7.664;2023-12-14T14:23:01;14.15;;;10.50;;
63943;SDS011;50121;51.218;7.664;2023-12-14T14:25:28;24.10;;;16.98;;
63943;SDS011;50121;51.218;7.664;2023-12-14T14:27:56;15.68;;;11.98;;
63943;SDS011;50121;51.218;7.664;2023-12-14T14:30:25;15.77;;;10.65;;
63943;SDS011;50121;51.218;7.664;2023-12-14T14:32:53;16.35;;;10.68;;
63943;SDS011;50121;51.218;7.664;2023-12-14T14:35:21;17.23;;;11.27;;
63943;SDS011;50121;51.218;7.664;2023-12-14T14:37:50;13.63;;;10.90;;
63943;SDS011;50121;51.218;7.664;2023-12-14T14:40:17;13.35;;;10.88;;